Time;durP1;ratioP1;P1;durP2;ratioP2;P2;SDS_P1;SDS_P2;PMS_P1;PMS_P2;Temp;Humidity;BMP_temperature;BMP_pressure;BME280_temperature;BME280_humidity;BME280_pressure;Samples;Min_cycle;Max_cycle;Signal;HPM_P1;HPM_P2
2021/10/10 00:00:20;;;;;;;17.90;8.52;;;;;;;;;;5036337;28;20530;-78
2021/10/10 00:02:45;;;;;;;12.98;7.35;;;;;;;;;;5036109;28;20034;-77
2021/10/10 00:05:10;;;;;;;14.48;7.68;;;;;;;;;;5036471;28;20017;-76
2021/10/10 00:07:36;;;;;;;16.23;8.68;;;;;;;;;;5036585;28;20100;-76
2021/10/10 00:10:01;;;;;;;20.50;7.68;;;;;;;;;;5036228;28;20470;-76
2021/10/10 00:12:26;;;;;;;21.40;7.70;;;;;;;;;;5036633;28;20021;-77
2021/10/10 00:14:52;;;;;;;18.90;8.48;;;;;;;;;;5036466;28;20022;-76
2021/10/10 00:17:17;;;;;;;21.80;8.63;;;;;;;;;;5036449;28;20037;-77
2021/10/10 00:19:42;;;;;;;15.55;7.82;;;;;;;;;;5039456;28;20043;-77
2021/10/10 00:22:08;;;;;;;15.65;8.32;;;;;;;;;;5049438;28;20378;-76
2021/10/10 00:24:33;;;;;;;17.95;7.60;;;;;;;;;;5036159;28;20083;-77
2021/10/10 00:26:58;;;;;;;16.27;7.82;;;;;;;;;;5042007;28;20017;-76
2021/10/10 00:29:24;;;;;;;14.82;8.00;;;;;;;;;;5056140;28;20489;-76
2021/10/10 00:31:49;;;;;;;15.45;7.57;;;;;;;;;;5055971;28;20037;-78
2021/10/10 00:34:14;;;;;;;17.10;7.93;;;;;;;;;;5050224;28;20029;-76
2021/10/10 00:36:40;;;;;;;21.17;8.25;;;;;;;;;;5055558;28;20021;-76
2021/10/10 00:39:05;;;;;;;16.10;7.25;;;;;;;;;;5055909;28;20394;-76
2021/10/10 00:41:30;;;;;;;19.73;8.65;;;;;;;;;;5055661;28;20024;-76
2021/10/10 00:43:56;;;;;;;19.85;8.00;;;;;;;;;;5055879;28;20075;-77
2021/10/10 00:46:21;;;;;;;16.20;7.22;;;;;;;;;;5055602;28;20366;-76
2021/10/10 00:48:46;;;;;;;22.00;8.55;;;;;;;;;;5053688;28;20024;-77
2021/10/10 00:51:11;;;;;;;19.98;7.97;;;;;;;;;;5055277;28;20431;-80
2021/10/10 00:53:38;;;;;;;14.23;7.57;;;;;;;;;;5045397;28;20462;-76
2021/10/10 00:56:03;;;;;;;15.32;7.45;;;;;;;;;;5051794;28;20021;-76
2021/10/10 00:58:29;;;;;;;15.38;7.65;;;;;;;;;;5041811;28;20078;-77
2021/10/10 01:00:55;;;;;;;14.95;7.72;;;;;;;;;;5052614;28;20025;-76
2021/10/10 01:03:21;;;;;;;22.00;8.00;;;;;;;;;;5055395;28;20029;-77
2021/10/10 01:05:46;;;;;;;22.17;9.52;;;;;;;;;;5055483;28;20513;-76
2021/10/10 01:08:15;;;;;;;19.60;9.45;;;;;;;;;;5055462;28;20447;-76
2021/10/10 01:10:41;;;;;;;15.40;7.93;;;;;;;;;;5055408;28;20021;-77
2021/10/10 01:13:06;;;;;;;17.10;8.30;;;;;;;;;;5038132;28;20024;-76
2021/10/10 01:15:32;;;;;;;16.73;8.50;;;;;;;;;;5044412;28;20482;-77
2021/10/10 01:17:57;;;;;;;19.58;9.30;;;;;;;;;;5052309;28;20060;-76
2021/10/10 01:20:22;;;;;;;16.70;8.25;;;;;;;;;;5055294;28;20370;-76
2021/10/10 01:22:48;;;;;;;19.20;8.80;;;;;;;;;;5036848;28;20038;-76
2021/10/10 01:25:13;;;;;;;17.17;8.38;;;;;;;;;;5040256;28;20025;-77
2021/10/10 01:27:38;;;;;;;15.93;8.55;;;;;;;;;;5044965;28;20025;-76
2021/10/10 01:30:04;;;;;;;20.48;7.75;;;;;;;;;;5048363;28;20037;-76
2021/10/10 01:32:29;;;;;;;17.17;7.53;;;;;;;;;;5054904;28;20021;-77
2021/10/10 01:34:55;;;;;;;19.20;8.05;;;;;;;;;;5047062;28;20041;-76
2021/10/10 01:37:20;;;;;;;15.60;8.13;;;;;;;;;;5055168;28;20389;-76
2021/10/10 01:39:45;;;;;;;22.80;8.80;;;;;;;;;;5055021;28;20413;-76
2021/10/10 01:42:10;;;;;;;15.70;8.73;;;;;;;;;;5048052;28;20021;-77
2021/10/10 01:44:36;;;;;;;18.95;9.30;;;;;;;;;;5051459;28;20437;-77
2021/10/10 01:47:01;;;;;;;20.27;8.93;;;;;;;;;;5054686;28;20525;-76
2021/10/10 01:49:26;;;;;;;20.17;9.45;;;;;;;;;;5054731;28;20032;-76
2021/10/10 01:51:52;;;;;;;16.30;9.68;;;;;;;;;;5051298;28;20043;-76
2021/10/10 01:54:17;;;;;;;14.88;8.98;;;;;;;;;;5034719;28;20409;-76
2021/10/10 01:56:42;;;;;;;18.55;9.95;;;;;;;;;;5045229;28;20028;-77
2021/10/10 01:59:07;;;;;;;21.92;8.48;;;;;;;;;;5043437;28;20478;-76
2021/10/10 02:01:33;;;;;;;18.35;8.60;;;;;;;;;;5034335;28;20071;-77
2021/10/10 02:03:58;;;;;;;17.88;9.68;;;;;;;;;;5038348;28;20044;-76
2021/10/10 02:06:23;;;;;;;45.63;9.43;;;;;;;;;;5054324;28;20039;-76
2021/10/10 02:08:49;;;;;;;17.60;8.88;;;;;;;;;;5047847;28;20026;-76
2021/10/10 02:11:14;;;;;;;19.23;8.73;;;;;;;;;;5034166;28;20371;-77
2021/10/10 02:13:39;;;;;;;19.50;9.75;;;;;;;;;;5037583;28;20090;-77
2021/10/10 02:16:04;;;;;;;23.02;9.43;;;;;;;;;;5034258;28;20124;-77
2021/10/10 02:18:30;;;;;;;18.30;9.15;;;;;;;;;;5033984;28;20030;-76
2021/10/10 02:20:55;;;;;;;19.40;8.70;;;;;;;;;;5034035;28;20037;-76
2021/10/10 02:23:20;;;;;;;20.13;9.13;;;;;;;;;;5041837;28;20044;-76
2021/10/10 02:25:46;;;;;;;18.40;8.80;;;;;;;;;;5046703;28;20462;-77
2021/10/10 02:28:11;;;;;;;21.55;9.30;;;;;;;;;;5049081;28;20037;-76
2021/10/10 02:30:36;;;;;;;20.45;9.25;;;;;;;;;;5033931;28;20025;-76
2021/10/10 02:33:02;;;;;;;21.50;9.10;;;;;;;;;;5033938;28;20391;-76
2021/10/10 02:35:27;;;;;;;21.55;10.18;;;;;;;;;;5042848;28;20076;-76
2021/10/10 02:37:52;;;;;;;19.67;9.50;;;;;;;;;;5053796;28;20025;-76
2021/10/10 02:40:18;;;;;;;25.42;8.90;;;;;;;;;;5053806;28;20031;-76
2021/10/10 02:42:43;;;;;;;22.27;9.05;;;;;;;;;;5053595;28;20079;-78
2021/10/10 02:45:08;;;;;;;22.08;10.05;;;;;;;;;;5053610;28;20458;-76
2021/10/10 02:47:34;;;;;;;19.50;9.60;;;;;;;;;;5053803;28;20017;-76
2021/10/10 02:49:59;;;;;;;19.98;9.50;;;;;;;;;;5053655;28;20025;-76
2021/10/10 02:52:25;;;;;;;19.75;9.68;;;;;;;;;;5053609;28;20028;-76
2021/10/10 02:54:51;;;;;;;19.17;9.13;;;;;;;;;;5053475;28;20016;-76
2021/10/10 02:57:16;;;;;;;25.15;9.45;;;;;;;;;;5053549;28;20362;-77
2021/10/10 02:59:41;;;;;;;19.65;8.68;;;;;;;;;;5053470;28;20460;-76
2021/10/10 03:02:07;;;;;;;16.98;9.23;;;;;;;;;;5053174;28;20389;-76
2021/10/10 03:04:32;;;;;;;24.08;9.98;;;;;;;;;;5052472;28;20116;-77
2021/10/10 03:06:57;;;;;;;17.08;9.75;;;;;;;;;;5053396;28;20024;-76
2021/10/10 03:09:23;;;;;;;18.42;9.38;;;;;;;;;;5053452;28;20445;-76
2021/10/10 03:11:48;;;;;;;24.95;9.40;;;;;;;;;;5053276;28;20037;-76
2021/10/10 03:14:13;;;;;;;20.60;8.55;;;;;;;;;;5053685;28;20028;-78
2021/10/10 03:16:38;;;;;;;19.02;8.90;;;;;;;;;;5053013;28;20104;-76
2021/10/10 03:19:04;;;;;;;15.40;8.35;;;;;;;;;;5053262;28;20029;-76
2021/10/10 03:21:29;;;;;;;24.85;10.25;;;;;;;;;;5052884;28;20029;-76
2021/10/10 03:23:55;;;;;;;20.20;9.23;;;;;;;;;;5053160;28;20078;-76
2021/10/10 03:26:20;;;;;;;23.42;9.50;;;;;;;;;;5053195;28;20029;-76
2021/10/10 03:28:45;;;;;;;18.85;9.52;;;;;;;;;;5053142;28;20472;-77
2021/10/10 03:31:10;;;;;;;20.00;9.15;;;;;;;;;;5053139;28;20021;-76
2021/10/10 03:33:36;;;;;;;23.58;9.93;;;;;;;;;;5053127;28;20065;-76
2021/10/10 03:36:01;;;;;;;25.27;10.15;;;;;;;;;;5053025;28;20394;-77
2021/10/10 03:38:26;;;;;;;19.38;8.70;;;;;;;;;;5053191;28;20377;-76
2021/10/10 03:40:51;;;;;;;21.20;9.45;;;;;;;;;;5052991;28;20033;-76
2021/10/10 03:43:17;;;;;;;21.88;9.27;;;;;;;;;;5052939;28;20104;-77
2021/10/10 03:45:42;;;;;;;25.33;10.07;;;;;;;;;;5053049;28;20026;-76
2021/10/10 03:48:07;;;;;;;23.77;10.05;;;;;;;;;;5052982;28;20425;-76
2021/10/10 03:50:32;;;;;;;20.95;10.73;;;;;;;;;;5052971;28;20100;-78
2021/10/10 03:52:58;;;;;;;26.52;10.30;;;;;;;;;;5053338;28;20025;-76
2021/10/10 03:55:39;;;;;;;29.45;11.25;;;;;;;;;;5052899;28;20044;-76
2021/10/10 03:58:05;;;;;;;28.63;10.05;;;;;;;;;;5052811;28;20074;-76
2021/10/10 04:00:31;;;;;;;36.28;11.45;;;;;;;;;;5052854;28;20055;-76
2021/10/10 04:03:04;;;;;;;28.50;10.85;;;;;;;;;;5052659;28;20495;-76
2021/10/10 04:07:58;;;;;;;34.10;11.25;;;;;;;;;;5052731;28;20040;-76
2021/10/10 04:10:23;;;;;;;26.52;10.13;;;;;;;;;;5052714;28;20017;-76
2021/10/10 04:12:49;;;;;;;35.38;10.95;;;;;;;;;;5036461;28;20025;-76
2021/10/10 04:15:14;;;;;;;34.30;11.23;;;;;;;;;;5036763;28;20033;-76
2021/10/10 04:17:43;;;;;;;32.58;11.02;;;;;;;;;;5044163;28;20021;-77
2021/10/10 04:20:13;;;;;;;26.90;11.00;;;;;;;;;;5046983;28;20400;-76
2021/10/10 04:22:39;;;;;;;29.40;10.13;;;;;;;;;;5052341;28;20106;-76
2021/10/10 04:25:07;;;;;;;32.42;11.65;;;;;;;;;;5056224;28;20032;-76
2021/10/10 04:27:34;;;;;;;27.63;10.80;;;;;;;;;;5056307;28;20017;-77
2021/10/10 04:29:59;;;;;;;26.10;10.25;;;;;;;;;;5056168;28;20031;-76
2021/10/10 04:32:25;;;;;;;28.08;10.77;;;;;;;;;;5056142;28;20615;-77
2021/10/10 04:34:50;;;;;;;33.28;10.50;;;;;;;;;;5055856;28;20037;-77
2021/10/10 04:37:15;;;;;;;36.78;10.75;;;;;;;;;;5056134;28;20059;-76
2021/10/10 04:39:41;;;;;;;31.00;10.63;;;;;;;;;;5055934;28;20025;-76
2021/10/10 04:42:06;;;;;;;25.83;10.18;;;;;;;;;;5055993;28;20040;-76
2021/10/10 04:44:32;;;;;;;34.95;10.57;;;;;;;;;;5055810;28;20381;-77
2021/10/10 04:46:57;;;;;;;35.65;10.45;;;;;;;;;;5055751;28;20046;-77
2021/10/10 04:49:22;;;;;;;32.30;10.32;;;;;;;;;;5056082;28;20347;-77
2021/10/10 04:51:47;;;;;;;22.98;9.85;;;;;;;;;;5055455;28;20033;-76
2021/10/10 04:54:13;;;;;;;26.23;10.18;;;;;;;;;;5055773;28;20489;-77
2021/10/10 04:56:40;;;;;;;32.15;10.98;;;;;;;;;;5055673;28;20556;-77
2021/10/10 04:59:05;;;;;;;34.42;10.23;;;;;;;;;;5055609;28;20052;-76
2021/10/10 05:01:30;;;;;;;23.40;9.60;;;;;;;;;;5055396;28;20106;-76
2021/10/10 05:03:55;;;;;;;26.33;10.55;;;;;;;;;;5055456;28;20041;-76
2021/10/10 05:06:21;;;;;;;27.27;9.63;;;;;;;;;;5050566;28;20387;-77
2021/10/10 05:08:46;;;;;;;23.08;10.10;;;;;;;;;;5035792;28;20067;-77
2021/10/10 05:11:11;;;;;;;28.00;10.57;;;;;;;;;;5042914;28;20465;-76
2021/10/10 05:13:37;;;;;;;27.83;11.30;;;;;;;;;;5054994;28;20028;-79
2021/10/10 05:16:02;;;;;;;31.88;10.10;;;;;;;;;;5050659;28;20527;-76
2021/10/10 05:18:27;;;;;;;26.92;10.65;;;;;;;;;;5055287;28;20021;-77
2021/10/10 05:20:53;;;;;;;26.70;9.75;;;;;;;;;;5053388;28;20469;-77
2021/10/10 05:23:18;;;;;;;20.80;9.60;;;;;;;;;;5035138;28;20109;-76
2021/10/10 05:25:43;;;;;;;24.42;10.02;;;;;;;;;;5035290;28;20025;-76
2021/10/10 05:28:08;;;;;;;30.50;10.50;;;;;;;;;;5034160;28;20041;-77
2021/10/10 05:30:34;;;;;;;32.25;11.07;;;;;;;;;;5051331;28;20063;-76
2021/10/10 05:32:59;;;;;;;31.77;11.35;;;;;;;;;;5054974;28;20021;-76
2021/10/10 05:35:25;;;;;;;29.92;10.00;;;;;;;;;;5054467;28;20045;-76
2021/10/10 05:37:50;;;;;;;33.03;10.32;;;;;;;;;;5054864;28;20121;-76
2021/10/10 05:40:15;;;;;;;27.30;8.90;;;;;;;;;;5054930;28;20376;-76
2021/10/10 05:42:40;;;;;;;23.95;9.20;;;;;;;;;;5043997;28;20029;-77
2021/10/10 05:45:06;;;;;;;41.15;9.98;;;;;;;;;;5034549;28;20087;-79
2021/10/10 05:47:31;;;;;;;28.73;9.40;;;;;;;;;;5034916;28;20026;-76
2021/10/10 05:49:57;;;;;;;28.13;9.63;;;;;;;;;;5034727;28;20383;-76
2021/10/10 05:52:26;;;;;;;31.02;10.13;;;;;;;;;;5034679;28;20021;-77
2021/10/10 05:54:52;;;;;;;32.53;9.23;;;;;;;;;;5034399;28;20555;-76
2021/10/10 05:57:20;;;;;;;29.58;9.45;;;;;;;;;;5034549;28;20104;-76
2021/10/10 05:59:47;;;;;;;25.58;9.05;;;;;;;;;;5039745;28;20458;-76
2021/10/10 06:02:12;;;;;;;31.30;9.77;;;;;;;;;;5034292;28;20489;-76
2021/10/10 06:04:38;;;;;;;37.33;10.05;;;;;;;;;;5040247;28;20048;-77
2021/10/10 06:07:03;;;;;;;32.42;10.10;;;;;;;;;;5054395;28;20100;-76
2021/10/10 06:09:29;;;;;;;31.17;9.75;;;;;;;;;;5053180;28;20051;-77
2021/10/10 06:11:54;;;;;;;34.05;8.85;;;;;;;;;;5054195;28;20466;-76
2021/10/10 06:14:19;;;;;;;68.55;10.18;;;;;;;;;;5054241;28;20021;-77
2021/10/10 06:16:45;;;;;;;39.40;9.90;;;;;;;;;;5053933;28;20033;-77
2021/10/10 06:19:10;;;;;;;28.27;9.15;;;;;;;;;;5054213;28;20036;-76
2021/10/10 06:21:36;;;;;;;33.78;9.18;;;;;;;;;;5056675;28;20021;-76
2021/10/10 06:24:01;;;;;;;131.15;12.88;;;;;;;;;;5054507;28;20407;-76
2021/10/10 06:26:26;;;;;;;34.63;10.00;;;;;;;;;;5054529;28;20465;-76
2021/10/10 06:28:51;;;;;;;44.72;9.10;;;;;;;;;;5054608;28;20017;-77
2021/10/10 06:31:17;;;;;;;20.95;8.45;;;;;;;;;;5055117;28;20071;-78
2021/10/10 06:33:42;;;;;;;35.90;9.25;;;;;;;;;;5058104;28;20024;-76
2021/10/10 06:36:07;;;;;;;28.27;8.27;;;;;;;;;;5070058;28;20051;-76
2021/10/10 06:38:33;;;;;;;31.10;8.05;;;;;;;;;;5059303;28;20017;-76
2021/10/10 06:40:59;;;;;;;29.05;8.65;;;;;;;;;;5069901;28;20115;-76
2021/10/10 06:43:24;;;;;;;28.05;8.90;;;;;;;;;;5058399;28;20059;-77
2021/10/10 06:45:49;;;;;;;27.73;8.15;;;;;;;;;;5065274;28;20429;-77
2021/10/10 06:48:15;;;;;;;31.40;8.48;;;;;;;;;;5065180;28;20492;-77
2021/10/10 06:50:40;;;;;;;31.50;7.72;;;;;;;;;;5057743;28;20017;-78
2021/10/10 06:53:05;;;;;;;48.58;8.73;;;;;;;;;;5055593;28;20024;-76
2021/10/10 06:55:31;;;;;;;26.25;8.15;;;;;;;;;;5064167;28;20081;-77
2021/10/10 06:57:56;;;;;;;45.13;9.45;;;;;;;;;;5064085;28;20380;-78
2021/10/10 07:00:21;;;;;;;30.50;7.47;;;;;;;;;;5066083;28;20052;-77
2021/10/10 07:02:47;;;;;;;29.88;8.40;;;;;;;;;;5056416;28;20059;-77
2021/10/10 07:05:13;;;;;;;27.52;7.90;;;;;;;;;;5054878;28;20038;-78
2021/10/10 07:07:39;;;;;;;23.98;6.97;;;;;;;;;;5058229;28;20031;-78
2021/10/10 07:10:04;;;;;;;35.40;7.78;;;;;;;;;;5062952;28;20036;-76
2021/10/10 07:12:29;;;;;;;35.03;8.48;;;;;;;;;;5066785;28;20060;-77
2021/10/10 07:14:55;;;;;;;36.38;6.70;;;;;;;;;;5056438;28;20029;-77
2021/10/10 07:17:25;;;;;;;22.65;6.03;;;;;;;;;;5068964;28;20029;-77
2021/10/10 07:19:55;;;;;;;20.00;5.35;;;;;;;;;;5059388;28;20020;-77
2021/10/10 07:25:18;;;;;;;12.13;4.78;;;;;;;;;;5040819;28;20041;-77
2021/10/10 07:27:44;;;;;;;11.38;4.93;;;;;;;;;;5053149;28;20502;-77
2021/10/10 07:30:10;;;;;;;32.60;5.65;;;;;;;;;;5053301;28;20033;-78
2021/10/10 07:32:36;;;;;;;6.05;3.63;;;;;;;;;;5050452;28;20021;-77
2021/10/10 07:35:02;;;;;;;5.28;3.00;;;;;;;;;;5037246;28;20398;-78
2021/10/10 07:37:28;;;;;;;10.25;3.53;;;;;;;;;;5051470;28;20037;-77
2021/10/10 07:39:53;;;;;;;9.40;3.22;;;;;;;;;;5053024;28;20025;-77
2021/10/10 07:42:18;;;;;;;8.68;2.88;;;;;;;;;;5039372;28;20060;-83
2021/10/10 07:44:45;;;;;;;6.03;2.92;;;;;;;;;;5051094;28;20064;-77
2021/10/10 07:49:49;;;;;;;7.45;2.50;;;;;;;;;;5053168;28;20116;-77
2021/10/10 07:52:14;;;;;;;5.10;2.05;;;;;;;;;;5056665;28;20437;-78
2021/10/10 07:54:39;;;;;;;5.55;2.10;;;;;;;;;;5056466;28;20104;-79
2021/10/10 07:57:05;;;;;;;6.22;2.08;;;;;;;;;;5056945;28;20025;-78
2021/10/10 07:59:30;;;;;;;4.95;2.00;;;;;;;;;;5056737;28;20043;-78
2021/10/10 08:01:55;;;;;;;3.63;1.80;;;;;;;;;;5056604;28;20025;-77
2021/10/10 08:04:21;;;;;;;9.45;2.58;;;;;;;;;;5056063;28;20478;-78
2021/10/10 08:06:49;;;;;;;4.47;2.40;;;;;;;;;;5056515;28;20075;-78
2021/10/10 08:09:15;;;;;;;8.30;3.28;;;;;;;;;;5055500;28;20086;-77
2021/10/10 08:11:41;;;;;;;8.23;2.08;;;;;;;;;;5056102;28;20457;-78
2021/10/10 08:14:06;;;;;;;6.15;2.45;;;;;;;;;;5056503;28;20074;-77
2021/10/10 08:16:31;;;;;;;8.38;1.83;;;;;;;;;;5056486;28;20028;-77
2021/10/10 08:18:57;;;;;;;4.47;1.80;;;;;;;;;;5056446;28;20033;-78
2021/10/10 08:21:22;;;;;;;8.88;2.47;;;;;;;;;;5056361;28;20389;-78
2021/10/10 08:23:47;;;;;;;5.22;1.88;;;;;;;;;;5055862;28;20029;-78
2021/10/10 08:26:12;;;;;;;2.63;1.73;;;;;;;;;;5056343;28;20021;-78
2021/10/10 08:28:38;;;;;;;5.13;2.20;;;;;;;;;;5056223;28;20068;-80
2021/10/10 08:31:03;;;;;;;4.03;1.83;;;;;;;;;;5056167;28;20429;-78
2021/10/10 08:33:29;;;;;;;4.93;1.70;;;;;;;;;;5056188;28;20448;-78
2021/10/10 08:35:54;;;;;;;3.83;1.50;;;;;;;;;;5055582;28;20053;-78
2021/10/10 08:38:19;;;;;;;5.55;1.70;;;;;;;;;;5056360;28;20404;-78
2021/10/10 08:40:46;;;;;;;3.53;1.30;;;;;;;;;;5056021;28;20469;-78
2021/10/10 08:43:13;;;;;;;5.80;1.50;;;;;;;;;;5055907;28;20044;-78
2021/10/10 08:45:41;;;;;;;3.80;1.50;;;;;;;;;;5055975;28;20042;-79
2021/10/10 08:48:06;;;;;;;4.93;1.52;;;;;;;;;;5055997;28;20017;-79
2021/10/10 08:50:31;;;;;;;3.17;1.20;;;;;;;;;;5055824;28;20035;-79
2021/10/10 08:52:59;;;;;;;4.80;1.33;;;;;;;;;;5055777;28;20469;-78
2021/10/10 08:55:25;;;;;;;2.85;1.70;;;;;;;;;;5055964;28;20051;-78
2021/10/10 08:57:51;;;;;;;2.97;1.42;;;;;;;;;;5055255;28;20508;-79
2021/10/10 09:00:19;;;;;;;4.28;1.30;;;;;;;;;;5055532;28;20029;-78
2021/10/10 09:02:50;;;;;;;6.65;1.50;;;;;;;;;;5053930;28;20016;-79
2021/10/10 09:05:16;;;;;;;2.90;1.27;;;;;;;;;;5055175;28;20041;-78
2021/10/10 09:07:43;;;;;;;6.22;1.27;;;;;;;;;;5055232;28;20021;-83
2021/10/10 09:10:28;;;;;;;4.57;1.27;;;;;;;;;;5055401;28;20021;-79
2021/10/10 09:12:53;;;;;;;;;;;;;;;;;;5055689;28;20084;-79
2021/10/10 09:15:20;;;;;;;5.82;1.10;;;;;;;;;;5055333;28;19970;-79
2021/10/10 09:17:52;;;;;;;4.20;1.35;;;;;;;;;;5055256;28;20107;-79
2021/10/10 09:20:24;;;;;;;4.03;1.17;;;;;;;;;;5055044;28;20025;-79
2021/10/10 09:22:50;;;;;;;2.15;0.98;;;;;;;;;;5055028;28;20076;-79
2021/10/10 09:25:16;;;;;;;1.98;1.10;;;;;;;;;;5055065;28;20041;-79
2021/10/10 09:27:41;;;;;;;4.22;1.35;;;;;;;;;;5055073;28;20033;-79
2021/10/10 09:30:08;;;;;;;2.72;1.10;;;;;;;;;;5055389;28;20421;-78
2021/10/10 09:32:33;;;;;;;2.72;1.10;;;;;;;;;;5055039;28;20087;-78
2021/10/10 09:34:59;;;;;;;2.95;1.20;;;;;;;;;;5054750;28;20037;-77
2021/10/10 09:37:36;;;;;;;1.83;0.90;;;;;;;;;;5054951;28;20029;-78
2021/10/10 09:40:14;;;;;;;4.55;0.90;;;;;;;;;;5054484;28;20049;-79
2021/10/10 09:42:42;;;;;;;2.78;1.05;;;;;;;;;;5054803;28;20044;-79
2021/10/10 09:45:15;;;;;;;4.63;1.38;;;;;;;;;;5054788;28;20469;-78
2021/10/10 09:47:55;;;;;;;2.67;1.13;;;;;;;;;;5054619;28;20061;-79
2021/10/10 09:50:21;;;;;;;4.78;0.95;;;;;;;;;;5054673;28;20070;-78
2021/10/10 09:52:58;;;;;;;3.22;1.25;;;;;;;;;;5054431;28;20111;-78
2021/10/10 09:55:23;;;;;;;5.10;0.95;;;;;;;;;;5054639;28;20354;-78
2021/10/10 09:57:48;;;;;;;1.90;0.90;;;;;;;;;;5054444;28;20075;-78
2021/10/10 10:00:21;;;;;;;4.25;0.93;;;;;;;;;;5054560;28;20017;-79
2021/10/10 10:02:50;;;;;;;3.25;1.05;;;;;;;;;;5054392;28;20040;-78
2021/10/10 10:05:27;;;;;;;4.18;1.20;;;;;;;;;;5054432;28;20032;-78
2021/10/10 10:07:53;;;;;;;5.72;1.20;;;;;;;;;;5054241;28;20020;-78
2021/10/10 10:10:19;;;;;;;2.55;1.10;;;;;;;;;;5054279;28;20115;-80
2021/10/10 10:12:46;;;;;;;3.40;1.00;;;;;;;;;;5053814;28;20025;-80
2021/10/10 10:15:11;;;;;;;3.42;1.10;;;;;;;;;;5054344;28;20013;-78
2021/10/10 10:17:36;;;;;;;4.93;1.20;;;;;;;;;;5054195;28;20400;-78
2021/10/10 10:20:02;;;;;;;2.47;1.05;;;;;;;;;;5053785;28;20044;-78
2021/10/10 10:22:30;;;;;;;2.17;1.00;;;;;;;;;;5054112;28;20024;-78
2021/10/10 10:24:56;;;;;;;2.95;0.80;;;;;;;;;;5053438;28;20381;-78
2021/10/10 10:27:22;;;;;;;6.18;1.20;;;;;;;;;;5054066;28;20800;-77
2021/10/10 10:29:48;;;;;;;3.45;1.95;;;;;;;;;;5052836;28;20113;-78
2021/10/10 10:32:15;;;;;;;3.70;1.13;;;;;;;;;;5053584;28;20099;-78
2021/10/10 10:34:56;;;;;;;4.45;1.15;;;;;;;;;;5053673;28;20064;-79
2021/10/10 10:37:21;;;;;;;5.03;1.15;;;;;;;;;;5054149;28;20025;-78
2021/10/10 10:39:50;;;;;;;4.95;1.00;;;;;;;;;;5053783;28;20516;-79
2021/10/10 10:42:24;;;;;;;3.00;1.00;;;;;;;;;;5053761;28;20021;-78
2021/10/10 10:44:51;;;;;;;7.70;1.43;;;;;;;;;;5053372;28;20044;-78
2021/10/10 10:47:17;;;;;;;1.90;0.90;;;;;;;;;;5053713;28;20119;-78
2021/10/10 10:49:43;;;;;;;9.38;1.92;;;;;;;;;;5053041;28;20012;-78
2021/10/10 10:52:28;;;;;;;3.80;1.20;;;;;;;;;;5053464;28;20064;-78
2021/10/10 10:54:57;;;;;;;2.85;1.00;;;;;;;;;;5053533;28;20036;-77
2021/10/10 10:57:31;;;;;;;2.92;1.17;;;;;;;;;;5053576;28;20466;-77
2021/10/10 10:59:57;;;;;;;4.28;1.10;;;;;;;;;;5053436;28;20032;-77
2021/10/10 11:02:43;;;;;;;3.63;0.90;;;;;;;;;;5053529;28;20115;-77
2021/10/10 11:05:08;;;;;;;4.22;1.20;;;;;;;;;;5053308;28;20041;-77
2021/10/10 11:07:33;;;;;;;4.85;1.13;;;;;;;;;;5053377;28;20419;-77
2021/10/10 11:10:01;;;;;;;8.90;1.30;;;;;;;;;;5053372;28;20039;-77
2021/10/10 11:12:30;;;;;;;7.40;1.20;;;;;;;;;;5053401;28;20052;-77
2021/10/10 11:15:09;;;;;;;2.53;0.85;;;;;;;;;;5053369;28;20029;-77
2021/10/10 11:17:35;;;;;;;5.45;1.13;;;;;;;;;;5053380;28;20068;-77
2021/10/10 11:20:01;;;;;;;3.42;0.98;;;;;;;;;;5053208;28;20485;-76
2021/10/10 11:22:27;;;;;;;5.53;0.98;;;;;;;;;;5053268;28;20116;-77
2021/10/10 11:24:53;;;;;;;3.60;1.17;;;;;;;;;;5053280;28;20039;-78
2021/10/10 11:27:20;;;;;;;6.82;1.25;;;;;;;;;;5057147;28;20393;-76
2021/10/10 11:29:50;;;;;;;4.22;0.98;;;;;;;;;;5057313;28;20032;-79
2021/10/10 11:32:15;;;;;;;4.20;1.02;;;;;;;;;;5057354;28;20024;-77
2021/10/10 11:34:40;;;;;;;3.08;0.80;;;;;;;;;;5055782;28;20421;-78
2021/10/10 11:37:11;;;;;;;6.95;1.25;;;;;;;;;;5057289;28;20469;-77
2021/10/10 11:39:36;;;;;;;2.08;0.70;;;;;;;;;;5056921;28;20465;-78
2021/10/10 11:42:06;;;;;;;9.63;1.50;;;;;;;;;;5059638;28;20035;-78
2021/10/10 11:44:38;;;;;;;4.15;1.10;;;;;;;;;;5069266;28;20037;-77
2021/10/10 11:47:05;;;;;;;3.55;0.98;;;;;;;;;;5057437;28;20167;-77
2021/10/10 11:49:42;;;;;;;5.80;1.30;;;;;;;;;;5062443;28;20029;-77
2021/10/10 11:52:21;;;;;;;2.33;1.02;;;;;;;;;;5070115;28;20032;-77
2021/10/10 11:54:49;;;;;;;1.70;0.75;;;;;;;;;;5069683;28;20036;-78
2021/10/10 11:57:15;;;;;;;7.78;1.27;;;;;;;;;;5067481;28;20464;-77
2021/10/10 11:59:51;;;;;;;22.48;3.10;;;;;;;;;;5076533;28;20038;-78
2021/10/10 12:02:17;;;;;;;14.05;1.80;;;;;;;;;;5076928;28;20415;-78
2021/10/10 12:04:43;;;;;;;3.33;1.05;;;;;;;;;;5075714;28;20047;-78
2021/10/10 12:07:08;;;;;;;5.85;1.15;;;;;;;;;;5072336;28;20017;-77
2021/10/10 12:09:46;;;;;;;7.05;1.30;;;;;;;;;;5075311;28;20033;-78
2021/10/10 12:12:13;;;;;;;7.03;1.63;;;;;;;;;;5076126;28;20374;-77
2021/10/10 12:14:44;;;;;;;6.07;1.02;;;;;;;;;;5075354;28;20482;-78
2021/10/10 12:17:24;;;;;;;5.63;1.20;;;;;;;;;;5076709;28;20036;-77
2021/10/10 12:19:50;;;;;;;3.97;0.98;;;;;;;;;;5057611;28;20032;-78
2021/10/10 12:22:17;;;;;;;3.65;1.13;;;;;;;;;;5056333;28;20029;-78
2021/10/10 12:24:43;;;;;;;4.65;1.17;;;;;;;;;;5066623;28;20032;-78
2021/10/10 12:27:09;;;;;;;3.28;1.23;;;;;;;;;;5064422;28;20079;-78
2021/10/10 12:29:34;;;;;;;3.78;1.00;;;;;;;;;;5056145;28;20033;-78
2021/10/10 12:32:18;;;;;;;1.85;1.00;;;;;;;;;;5056124;28;20079;-77
2021/10/10 12:34:43;;;;;;;5.95;1.30;;;;;;;;;;5055824;28;20393;-77
2021/10/10 12:37:19;;;;;;;5.00;1.20;;;;;;;;;;5055786;28;20025;-78
2021/10/10 12:39:45;;;;;;;5.03;1.10;;;;;;;;;;5055939;28;20028;-78
2021/10/10 12:42:10;;;;;;;4.05;1.20;;;;;;;;;;5056039;28;20025;-77
2021/10/10 12:44:36;;;;;;;4.20;0.82;;;;;;;;;;5055599;28;20079;-78
2021/10/10 12:47:01;;;;;;;4.22;1.40;;;;;;;;;;5058097;28;20066;-78
2021/10/10 12:49:27;;;;;;;3.35;1.10;;;;;;;;;;5063353;28;20078;-78
2021/10/10 12:51:53;;;;;;;5.65;1.20;;;;;;;;;;5075359;28;20070;-78
2021/10/10 12:54:23;;;;;;;5.03;1.05;;;;;;;;;;5075635;28;20029;-78
2021/10/10 12:56:58;;;;;;;6.72;1.30;;;;;;;;;;5074425;28;20444;-79
2021/10/10 12:59:24;;;;;;;5.53;1.25;;;;;;;;;;5075779;28;20028;-78
2021/10/10 13:01:49;;;;;;;5.97;1.58;;;;;;;;;;5075677;28;20481;-79
2021/10/10 13:04:14;;;;;;;3.75;1.10;;;;;;;;;;5071582;28;20053;-78
2021/10/10 13:06:46;;;;;;;6.85;1.25;;;;;;;;;;5055588;28;20025;-78
2021/10/10 13:09:12;;;;;;;4.63;1.10;;;;;;;;;;5055457;28;20108;-77
2021/10/10 13:11:38;;;;;;;5.00;1.20;;;;;;;;;;5055494;28;20109;-78
2021/10/10 13:14:04;;;;;;;6.13;1.45;;;;;;;;;;5055498;28;20444;-77
2021/10/10 13:16:29;;;;;;;9.00;1.50;;;;;;;;;;5055305;28;20048;-77
2021/10/10 13:18:55;;;;;;;3.80;1.17;;;;;;;;;;5054840;28;20088;-77
2021/10/10 13:21:20;;;;;;;4.50;1.25;;;;;;;;;;5056194;28;20028;-77
2021/10/10 13:23:45;;;;;;;3.95;1.35;;;;;;;;;;5056984;28;20113;-77
2021/10/10 13:26:11;;;;;;;3.65;1.20;;;;;;;;;;5055611;28;20028;-78
2021/10/10 13:28:36;;;;;;;5.93;1.38;;;;;;;;;;5075120;28;20054;-78
2021/10/10 13:31:03;;;;;;;7.93;1.23;;;;;;;;;;5075412;28;20040;-77
2021/10/10 13:33:29;;;;;;;3.10;1.20;;;;;;;;;;5075066;28;20020;-77
2021/10/10 13:35:55;;;;;;;10.27;1.67;;;;;;;;;;5063164;28;20076;-78
2021/10/10 13:38:23;;;;;;;4.60;1.02;;;;;;;;;;5054816;28;20091;-77
2021/10/10 13:40:49;;;;;;;6.07;1.38;;;;;;;;;;5054843;28;20025;-78
2021/10/10 13:43:15;;;;;;;6.22;1.25;;;;;;;;;;5054597;28;20478;-77
2021/10/10 13:45:40;;;;;;;3.33;1.13;;;;;;;;;;5054751;28;20058;-79
2021/10/10 13:48:05;;;;;;;6.43;1.35;;;;;;;;;;5054077;28;20130;-77
2021/10/10 13:50:33;;;;;;;5.00;1.30;;;;;;;;;;5054237;28;20033;-79
2021/10/10 13:52:59;;;;;;;4.32;1.65;;;;;;;;;;5054551;28;20037;-77
2021/10/10 13:55:24;;;;;;;6.22;1.38;;;;;;;;;;5054401;28;20025;-78
2021/10/10 13:57:49;;;;;;;4.40;1.63;;;;;;;;;;5054602;28;20037;-77
2021/10/10 14:00:15;;;;;;;5.28;1.30;;;;;;;;;;5054889;28;20048;-78
2021/10/10 14:02:40;;;;;;;4.43;1.50;;;;;;;;;;5054114;28;20032;-78
2021/10/10 14:05:05;;;;;;;6.50;1.30;;;;;;;;;;5054607;28;20067;-78
2021/10/10 14:07:31;;;;;;;6.28;1.35;;;;;;;;;;5054055;28;20032;-77
2021/10/10 14:09:56;;;;;;;2.83;1.38;;;;;;;;;;5054351;28;20021;-78
2021/10/10 14:12:21;;;;;;;7.22;1.60;;;;;;;;;;5054234;28;20462;-78
2021/10/10 14:14:47;;;;;;;5.45;1.70;;;;;;;;;;5054257;28;20029;-78
2021/10/10 14:17:12;;;;;;;8.85;1.70;;;;;;;;;;5054206;28;20029;-79
2021/10/10 14:19:37;;;;;;;4.20;1.48;;;;;;;;;;5054169;28;20425;-80
2021/10/10 14:22:03;;;;;;;9.00;2.22;;;;;;;;;;5054023;28;20066;-78
2021/10/10 14:24:28;;;;;;;3.80;1.20;;;;;;;;;;5053683;28;20036;-77
2021/10/10 14:26:53;;;;;;;6.30;1.35;;;;;;;;;;5053997;28;20378;-77
2021/10/10 14:29:19;;;;;;;4.90;1.55;;;;;;;;;;5053936;28;20120;-78
2021/10/10 14:31:45;;;;;;;3.63;1.17;;;;;;;;;;5053973;28;20052;-78
2021/10/10 14:34:10;;;;;;;7.45;1.30;;;;;;;;;;5053876;28;20036;-77
2021/10/10 14:36:36;;;;;;;3.15;1.30;;;;;;;;;;5053270;28;20053;-77